createdAt,value
2022-08-22T00:02:36.585Z,10.30
2022-08-22T00:02:46.391Z,8.27
2022-08-22T00:02:49.791Z,7.50
2022-08-22T00:02:52.694Z,10.43
2022-08-22T00:02:57.678Z,9.45
2022-08-22T00:02:59.458Z,7.97
2022-08-22T00:03:00.471Z,9.20
2022-08-22T00:03:06.551Z,6.45
2022-08-22T00:05:24.947Z,9.18
2022-08-22T00:08:08.073Z,9.18
2022-08-22T00:10:49.916Z,8.35
2022-08-22T00:13:25.526Z,13.75
2022-08-22T00:16:09.031Z,9.45
2022-08-22T00:18:49.925Z,9.82
2022-08-22T00:21:29.708Z,9.10
2022-08-22T00:24:14.463Z,9.35
2022-08-22T00:26:47.692Z,8.82
2022-08-22T00:29:17.682Z,12.48
2022-08-22T00:31:47.778Z,7.97
2022-08-22T00:34:33.249Z,10.68
2022-08-22T00:37:17.251Z,11.98
2022-08-22T00:40:04.687Z,9.80
2022-08-22T00:42:53.448Z,17.67
2022-08-22T00:45:26.699Z,10.35
2022-08-22T00:48:14.679Z,11.63
2022-08-22T00:51:06.728Z,12.00
2022-08-22T00:53:36.230Z,11.65
2022-08-22T00:56:10.902Z,16.08
2022-08-22T00:58:57.466Z,10.13
2022-08-22T01:01:32.119Z,11.57
2022-08-22T01:04:28.909Z,10.23
2022-08-22T01:07:22.075Z,9.90
2022-08-22T01:10:01.001Z,12.30
2022-08-22T01:12:37.595Z,14.55
2022-08-22T01:15:07.781Z,13.93
2022-08-22T01:17:44.360Z,13.20
2022-08-22T01:20:29.940Z,8.90
2022-08-22T01:23:40.396Z,11.43
2022-08-22T01:26:21.090Z,8.82
2022-08-22T01:28:56.814Z,9.50
2022-08-22T01:31:48.530Z,11.57
2022-08-22T01:34:41.296Z,10.55
2022-08-22T01:37:22.560Z,10.60
2022-08-22T01:39:58.103Z,12.27
2022-08-22T01:42:30.709Z,9.77
2022-08-22T01:45:00.454Z,13.20
2022-08-22T01:47:43.878Z,10.23
2022-08-22T01:50:35.268Z,9.10
2022-08-22T01:53:12.620Z,9.35
2022-08-22T01:55:50.839Z,11.93
2022-08-22T01:58:23.237Z,10.52
2022-08-22T02:01:02.035Z,9.02
2022-08-22T02:03:53.783Z,11.48
2022-08-22T02:06:51.791Z,9.23
2022-08-22T02:09:40.139Z,10.45
2022-08-22T02:12:34.440Z,12.50
2022-08-22T02:15:19.206Z,13.05
2022-08-22T02:17:56.414Z,10.85
2022-08-22T02:20:33.976Z,13.98
2022-08-22T02:23:20.781Z,11.30
2022-08-22T02:25:56.719Z,10.25
2022-08-22T02:29:01.874Z,15.02
2022-08-22T02:31:47.161Z,10.27
2022-08-22T02:34:47.631Z,9.98
2022-08-22T02:37:40.885Z,15.85
2022-08-22T02:40:25.785Z,11.90
2022-08-22T02:43:14.949Z,10.43
2022-08-22T02:46:05.597Z,10.98
2022-08-22T02:48:50.739Z,10.88
2022-08-22T02:51:35.096Z,9.48
2022-08-22T02:54:26.553Z,12.27
2022-08-22T02:56:58.912Z,11.23
2022-08-22T03:00:04.695Z,13.73
2022-08-22T03:02:36.044Z,12.98
2022-08-22T03:05:15.615Z,13.75
2022-08-22T03:07:46.443Z,13.00
2022-08-22T03:10:35.721Z,12.32
2022-08-22T03:13:07.981Z,14.27
2022-08-22T03:15:49.446Z,14.00
2022-08-22T03:18:45.471Z,11.38
2022-08-22T03:21:33.880Z,13.93
2022-08-22T03:24:09.037Z,11.55
2022-08-22T03:26:45.055Z,12.85
2022-08-22T03:29:16.742Z,10.73
2022-08-22T03:32:07.421Z,13.88
2022-08-22T03:34:36.493Z,10.48
2022-08-22T03:37:10.955Z,11.68
2022-08-22T03:40:04.734Z,15.25
2022-08-22T03:43:19.230Z,10.77
2022-08-22T03:46:04.445Z,13.85
2022-08-22T03:48:51.350Z,14.10
2022-08-22T03:51:49.026Z,11.52
2022-08-22T03:54:21.888Z,16.08
2022-08-22T03:56:52.601Z,14.35
2022-08-22T03:59:34.042Z,12.05
2022-08-22T04:02:41.813Z,12.32
2022-08-22T04:05:26.750Z,11.43
2022-08-22T04:07:59.607Z,15.13
2022-08-22T04:10:54.850Z,14.00
2022-08-22T04:13:27.799Z,17.33
2022-08-22T04:16:31.724Z,13.10
2022-08-22T04:19:21.826Z,14.35
2022-08-22T04:22:16.511Z,12.45
2022-08-22T04:25:01.110Z,12.52
2022-08-22T04:27:43.323Z,13.27
2022-08-22T04:30:32.574Z,16.48
2022-08-22T04:33:17.138Z,12.63
2022-08-22T04:36:00.891Z,17.95
2022-08-22T04:38:32.481Z,11.88
2022-08-22T04:41:06.948Z,15.93
2022-08-22T04:43:42.618Z,14.75
2022-08-22T04:46:33.756Z,13.25
2022-08-22T04:49:14.592Z,17.45
2022-08-22T04:51:48.849Z,17.98
2022-08-22T04:54:39.649Z,17.50
2022-08-22T04:57:29.688Z,17.08
2022-08-22T05:00:07.691Z,13.52
2022-08-22T05:02:37.102Z,17.63
2022-08-22T05:05:13.533Z,20.08
2022-08-22T05:07:57.045Z,13.65
2022-08-22T05:10:36.073Z,15.40
2022-08-22T05:13:08.859Z,19.27
2022-08-22T05:15:37.737Z,17.48
2022-08-22T05:18:09.980Z,14.30
2022-08-22T05:20:39.394Z,14.38
2022-08-22T05:23:39.683Z,11.75
2022-08-22T05:26:07.020Z,12.40
2022-08-22T05:28:37.047Z,19.98
2022-08-22T05:31:12.435Z,14.68
2022-08-22T05:33:43.272Z,11.27
2022-08-22T05:36:15.475Z,11.85
2022-08-22T05:38:48.897Z,14.77
2022-08-22T05:41:25.491Z,15.52
2022-08-22T05:43:54.941Z,14.02
2022-08-22T05:46:27.123Z,10.25
2022-08-22T05:48:57.213Z,14.77
2022-08-22T05:51:27.561Z,14.45
2022-08-22T05:54:16.579Z,10.25
2022-08-22T05:56:50.270Z,12.40
2022-08-22T05:59:30.042Z,12.43
2022-08-22T06:02:35.549Z,11.23
2022-08-22T06:05:09.963Z,16.92
2022-08-22T06:07:44.283Z,10.95
2022-08-22T06:10:16.809Z,12.13
2022-08-22T06:12:49.076Z,13.55
2022-08-22T06:15:30.950Z,12.10
2022-08-22T06:18:05.287Z,9.55
2022-08-22T06:20:39.246Z,12.18
2022-08-22T06:23:06.323Z,9.88
2022-08-22T06:25:34.449Z,14.02
2022-08-22T06:28:07.157Z,10.23
2022-08-22T06:30:36.801Z,15.95
2022-08-22T06:33:08.018Z,13.35
2022-08-22T06:36:01.909Z,14.48
2022-08-22T06:38:33.616Z,13.05
2022-08-22T06:41:06.257Z,16.35
2022-08-22T06:43:37.930Z,14.45
2022-08-22T06:46:06.023Z,10.75
2022-08-22T06:48:32.796Z,14.60
2022-08-22T06:50:59.638Z,9.85
2022-08-22T06:53:48.132Z,13.18
2022-08-22T06:56:26.531Z,11.10
2022-08-22T06:58:56.507Z,11.77
2022-08-22T07:01:30.133Z,12.48
2022-08-22T07:04:09.864Z,12.07
2022-08-22T07:06:44.475Z,17.20
2022-08-22T07:09:30.942Z,13.70
2022-08-22T07:11:59.644Z,12.95
2022-08-22T07:14:40.904Z,14.55
2022-08-22T07:17:12.952Z,12.40
2022-08-22T07:19:41.597Z,9.45
2022-08-22T07:22:13.836Z,13.20
2022-08-22T07:24:44.980Z,14.05
2022-08-22T07:27:38.474Z,13.05
2022-08-22T07:30:10.119Z,9.60
2022-08-22T07:32:57.777Z,8.63
2022-08-22T07:35:53.029Z,9.27
2022-08-22T07:38:57.766Z,11.18
2022-08-22T07:41:29.160Z,10.60
2022-08-22T07:44:21.250Z,9.48
2022-08-22T07:47:18.022Z,8.38
2022-08-22T07:49:55.006Z,8.50
2022-08-22T07:52:21.819Z,8.30
2022-08-22T07:54:54.493Z,12.38
2022-08-22T07:57:32.187Z,9.77
2022-08-22T08:00:00.262Z,6.28
2022-08-22T08:02:27.145Z,9.88
2022-08-22T08:04:55.245Z,9.35
2022-08-22T08:07:24.095Z,13.55
2022-08-22T08:10:01.802Z,6.93
2022-08-22T08:12:38.439Z,6.85
2022-08-22T08:15:09.774Z,9.38
2022-08-22T08:17:36.870Z,8.38
2022-08-22T08:20:10.726Z,8.45
2022-08-22T08:22:38.458Z,10.38
2022-08-22T08:25:06.050Z,8.48
2022-08-22T08:27:54.278Z,14.65
2022-08-22T08:30:43.344Z,12.20
2022-08-22T08:33:25.179Z,14.05
2022-08-22T08:36:11.297Z,13.15
2022-08-22T08:39:12.491Z,12.45
2022-08-22T08:41:57.673Z,10.32
2022-08-22T08:45:04.061Z,10.07
2022-08-22T08:47:49.921Z,9.02
2022-08-22T08:50:22.351Z,15.50
2022-08-22T08:53:08.729Z,12.27
2022-08-22T08:55:41.154Z,8.18
2022-08-22T08:58:13.948Z,11.77
2022-08-22T09:00:52.615Z,12.63
2022-08-22T09:03:45.583Z,12.45
2022-08-22T09:06:18.524Z,14.93
2022-08-22T09:09:06.319Z,9.80
2022-08-22T09:11:51.376Z,8.45
2022-08-22T09:14:26.335Z,10.27
2022-08-22T09:17:09.870Z,9.52
2022-08-22T09:19:44.900Z,8.52
2022-08-22T09:22:33.390Z,11.10
2022-08-22T09:25:23.489Z,11.63
2022-08-22T09:28:19.765Z,8.90
2022-08-22T09:31:01.865Z,9.88
2022-08-22T09:33:49.835Z,13.73
2022-08-22T09:36:20.758Z,8.63
2022-08-22T09:39:16.519Z,9.05
2022-08-22T09:42:08.049Z,11.75
2022-08-22T09:44:39.425Z,8.32
2022-08-22T09:47:24.339Z,9.38
2022-08-22T09:50:05.972Z,11.77
2022-08-22T09:53:05.486Z,9.57
2022-08-22T09:55:41.016Z,8.20
2022-08-22T09:58:27.899Z,10.85
2022-08-22T10:01:32.774Z,10.55
2022-08-22T10:04:38.293Z,9.32
2022-08-22T10:07:53.969Z,12.88
2022-08-22T10:10:52.970Z,12.88
2022-08-22T10:13:34.070Z,9.20
2022-08-22T10:16:14.789Z,10.40
2022-08-22T10:19:07.375Z,8.13
2022-08-22T10:21:43.323Z,10.05
2022-08-22T10:24:31.020Z,8.82
2022-08-22T10:27:01.236Z,11.23
2022-08-22T10:29:52.919Z,7.75
2022-08-22T10:32:30.735Z,10.55
2022-08-22T10:35:10.459Z,11.18
2022-08-22T10:37:55.281Z,11.65
2022-08-22T10:40:25.914Z,14.85
2022-08-22T10:42:57.640Z,6.47
2022-08-22T10:45:36.726Z,9.38
2022-08-22T10:48:21.725Z,9.50
2022-08-22T10:50:50.711Z,8.52
2022-08-22T10:53:35.861Z,8.02
2022-08-22T10:56:34.334Z,9.48
2022-08-22T10:59:08.334Z,9.60
2022-08-22T11:01:42.471Z,10.63
2022-08-22T11:04:35.588Z,9.18
2022-08-22T11:07:39.437Z,8.50
2022-08-22T11:10:17.307Z,9.80
2022-08-22T11:12:54.143Z,10.10
2022-08-22T11:15:46.703Z,7.95
2022-08-22T11:18:30.747Z,10.50
2022-08-22T11:21:10.983Z,8.27
2022-08-22T11:23:40.813Z,10.32
2022-08-22T11:26:29.982Z,7.95
2022-08-22T11:29:23.350Z,9.70
2022-08-22T11:31:52.846Z,7.90
2022-08-22T11:34:47.040Z,9.63
2022-08-22T11:37:42.867Z,11.13
2022-08-22T11:40:41.462Z,10.38
2022-08-22T11:43:32.558Z,11.68
2022-08-22T11:46:14.008Z,9.00
2022-08-22T11:49:05.496Z,6.60
2022-08-22T11:51:44.769Z,12.63
2022-08-22T11:54:37.871Z,10.07
2022-08-22T11:57:33.613Z,9.82
2022-08-22T12:00:26.747Z,11.40
2022-08-22T12:03:12.667Z,8.02
2022-08-22T12:05:47.264Z,13.52
2022-08-22T12:08:23.461Z,7.53
2022-08-22T12:10:58.933Z,10.48
2022-08-22T12:13:52.476Z,6.97
2022-08-22T12:16:58.613Z,10.00
2022-08-22T12:19:42.037Z,11.23
2022-08-22T12:22:49.744Z,6.97
2022-08-22T12:25:24.125Z,8.63
2022-08-22T12:28:01.058Z,8.68
2022-08-22T12:30:55.129Z,9.00
2022-08-22T12:33:26.887Z,12.25
2022-08-22T12:36:18.351Z,9.43
2022-08-22T12:38:54.427Z,7.63
2022-08-22T12:41:40.239Z,9.43
2022-08-22T12:44:47.088Z,8.25
2022-08-22T12:47:46.400Z,9.27
2022-08-22T12:50:25.223Z,8.30
2022-08-22T12:53:01.430Z,14.15
2022-08-22T12:55:55.875Z,12.02
2022-08-22T12:58:35.845Z,12.07
2022-08-22T13:01:06.344Z,11.05
2022-08-22T13:03:49.303Z,7.70
2022-08-22T13:06:37.952Z,12.23
2022-08-22T13:09:30.771Z,8.68
2022-08-22T13:12:35.246Z,10.13
2022-08-22T13:15:10.822Z,9.90
2022-08-22T13:17:42.855Z,10.18
2022-08-22T13:20:13.341Z,11.68
2022-08-22T13:22:45.694Z,13.40
2022-08-22T13:25:15.849Z,7.95
2022-08-22T13:27:59.165Z,14.55
2022-08-22T13:30:44.087Z,14.13
2022-08-22T13:33:21.803Z,8.32
2022-08-22T13:35:52.685Z,12.45
2022-08-22T13:38:51.896Z,9.75
2022-08-22T13:41:26.123Z,11.32
2022-08-22T13:44:11.207Z,14.35
2022-08-22T13:46:52.751Z,9.20
2022-08-22T13:49:35.734Z,15.95
2022-08-22T13:52:29.220Z,12.55
2022-08-22T13:55:11.463Z,11.52
2022-08-22T13:57:52.014Z,14.07
2022-08-22T14:00:22.395Z,15.80
2022-08-22T14:03:01.745Z,10.38
2022-08-22T14:05:33.543Z,13.48
2022-08-22T14:08:12.907Z,11.48
2022-08-22T14:10:44.155Z,9.27
2022-08-22T14:13:17.543Z,14.88
2022-08-22T14:15:45.676Z,10.50
2022-08-22T14:18:19.877Z,14.15
2022-08-22T14:20:48.681Z,14.38
2022-08-22T14:23:29.159Z,19.40
2022-08-22T14:25:56.271Z,9.98
2022-08-22T14:28:32.061Z,17.30
2022-08-22T14:31:14.340Z,16.92
2022-08-22T14:33:45.159Z,15.25
2022-08-22T14:36:32.769Z,13.63
2022-08-22T14:39:08.807Z,12.80
2022-08-22T14:41:52.878Z,15.68
2022-08-22T14:44:32.240Z,11.00
2022-08-22T14:47:03.753Z,13.48
2022-08-22T14:49:49.318Z,10.23
2022-08-22T14:52:38.523Z,12.35
2022-08-22T14:55:27.758Z,11.02
2022-08-22T14:58:09.013Z,9.82
2022-08-22T15:00:37.871Z,9.05
2022-08-22T15:03:24.980Z,8.38
2022-08-22T15:06:06.761Z,13.25
2022-08-22T15:08:46.402Z,8.77
2022-08-22T15:11:22.106Z,9.63
2022-08-22T15:14:32.119Z,14.27
2022-08-22T15:17:01.882Z,14.55
2022-08-22T15:19:41.054Z,15.02
2022-08-22T15:22:27.566Z,15.02
2022-08-22T15:25:03.562Z,14.95
2022-08-22T15:27:31.275Z,12.70
2022-08-22T15:30:02.556Z,11.80
2022-08-22T15:32:35.751Z,13.23
2022-08-22T15:35:31.371Z,12.00
2022-08-22T15:38:04.719Z,11.95
2022-08-22T15:40:40.665Z,19.42
2022-08-22T15:43:34.901Z,15.90
2022-08-22T15:46:23.296Z,10.20
2022-08-22T15:49:10.646Z,13.68
2022-08-22T15:52:00.593Z,12.27
2022-08-22T15:54:54.670Z,12.57
2022-08-22T15:57:24.790Z,13.15
2022-08-22T16:00:24.626Z,11.05
2022-08-22T16:03:26.642Z,11.80
2022-08-22T16:05:58.517Z,11.27
2022-08-22T16:08:47.148Z,10.50
2022-08-22T16:11:29.687Z,10.50
2022-08-22T16:14:37.286Z,15.02
2022-08-22T16:17:07.143Z,12.40
2022-08-22T16:19:34.674Z,12.15
2022-08-22T16:22:03.359Z,12.38
2022-08-22T16:24:54.003Z,8.93
2022-08-22T16:27:25.102Z,10.95
2022-08-22T16:30:00.117Z,12.05
2022-08-22T16:32:28.276Z,13.20
2022-08-22T16:34:57.131Z,11.35
2022-08-22T16:37:42.142Z,9.05
2022-08-22T16:40:15.887Z,12.18
2022-08-22T16:42:46.339Z,13.75
2022-08-22T16:45:13.171Z,11.10
2022-08-22T16:48:02.312Z,11.48
2022-08-22T16:50:37.389Z,12.85
2022-08-22T16:53:08.547Z,12.38
2022-08-22T16:55:36.082Z,13.32
2022-08-22T16:58:56.641Z,12.10
2022-08-22T17:01:47.996Z,13.85
2022-08-22T17:04:26.705Z,10.07
2022-08-22T17:07:02.389Z,16.90
2022-08-22T17:09:50.783Z,15.40
2022-08-22T17:13:12.223Z,12.45
2022-08-22T17:16:16.721Z,14.30
2022-08-22T17:19:09.284Z,12.02
2022-08-22T17:21:51.733Z,18.10
2022-08-22T17:24:49.510Z,14.43
2022-08-22T17:27:16.437Z,12.02
2022-08-22T17:29:58.274Z,15.68
2022-08-22T17:32:34.877Z,10.98
2022-08-22T17:35:36.350Z,12.95
2022-08-22T17:38:30.952Z,20.75
2022-08-22T17:41:28.905Z,10.57
2022-08-22T17:44:23.170Z,10.90
2022-08-22T17:46:56.349Z,19.58
2022-08-22T17:49:29.036Z,11.65
2022-08-22T17:51:59.922Z,12.10
2022-08-22T17:54:41.998Z,13.57
2022-08-22T17:57:11.737Z,18.38
2022-08-22T17:59:47.613Z,9.40
2022-08-22T18:02:22.335Z,14.90
2022-08-22T18:05:00.973Z,12.38
2022-08-22T18:07:33.497Z,10.20
2022-08-22T18:10:19.374Z,11.68
2022-08-22T18:12:57.494Z,13.10
2022-08-22T18:15:32.241Z,14.77
2022-08-22T18:18:15.348Z,20.92
2022-08-22T18:20:46.865Z,15.13
2022-08-22T18:23:36.046Z,13.25
2022-08-22T18:26:24.577Z,11.30
2022-08-22T18:28:57.962Z,19.50
2022-08-22T18:32:05.899Z,12.98
2022-08-22T18:34:42.819Z,13.15
2022-08-22T18:37:37.167Z,10.98
2022-08-22T18:40:08.802Z,17.08
2022-08-22T18:42:53.142Z,16.13
2022-08-22T18:45:45.836Z,17.33
2022-08-22T18:48:31.768Z,10.98
2022-08-22T18:51:29.619Z,16.60
2022-08-22T18:54:05.562Z,15.30
2022-08-22T18:56:41.987Z,13.80
2022-08-22T18:59:09.092Z,18.83
2022-08-22T19:01:50.965Z,16.65
2022-08-22T19:04:33.115Z,14.15
2022-08-22T19:07:02.908Z,21.65
2022-08-22T19:09:56.111Z,15.68
2022-08-22T19:12:33.835Z,13.48
2022-08-22T19:15:25.567Z,15.18
2022-08-22T19:18:37.760Z,17.10
2022-08-22T19:21:39.466Z,19.83
2022-08-22T19:24:09.462Z,13.70
2022-08-22T19:26:37.660Z,13.20
2022-08-22T19:29:26.376Z,17.35
2022-08-22T19:32:00.332Z,15.73
2022-08-22T19:34:30.627Z,16.60
2022-08-22T19:37:33.106Z,20.15
2022-08-22T19:40:01.372Z,16.75
2022-08-22T19:42:30.507Z,11.60
2022-08-22T19:45:21.234Z,13.15
2022-08-22T19:47:59.746Z,18.67
2022-08-22T19:50:37.307Z,19.13
2022-08-22T19:53:18.534Z,13.10
2022-08-22T19:56:06.601Z,17.90
2022-08-22T19:59:02.979Z,19.05
2022-08-22T20:01:48.307Z,14.85
2022-08-22T20:04:53.875Z,14.30
2022-08-22T20:07:43.689Z,14.10
2022-08-22T20:10:29.614Z,17.50
2022-08-22T20:13:34.993Z,21.65
2022-08-22T20:16:07.779Z,15.32
2022-08-22T20:19:06.145Z,10.95
2022-08-22T20:22:00.539Z,19.15
2022-08-22T20:24:39.776Z,18.55
2022-08-22T20:27:14.538Z,16.40
2022-08-22T20:29:59.201Z,14.88
2022-08-22T20:32:26.156Z,20.42
2022-08-22T20:35:00.480Z,16.80
2022-08-22T20:38:03.200Z,19.58
2022-08-22T20:40:56.429Z,17.60
2022-08-22T20:43:36.447Z,19.73
2022-08-22T20:46:32.275Z,17.27
2022-08-22T20:49:02.326Z,26.42
2022-08-22T20:51:30.383Z,16.98
2022-08-22T20:54:10.184Z,20.17
2022-08-22T20:56:53.088Z,16.95
2022-08-22T20:59:39.885Z,15.70
2022-08-22T21:02:20.886Z,25.33
2022-08-22T21:05:01.991Z,15.70
2022-08-22T21:07:36.474Z,18.95
2022-08-22T21:10:27.623Z,22.40
2022-08-22T21:13:09.848Z,22.98
2022-08-22T21:15:42.151Z,20.08
2022-08-22T21:18:10.607Z,25.05
2022-08-22T21:20:41.140Z,18.42
2022-08-22T21:23:16.287Z,22.85
2022-08-22T21:25:49.127Z,19.27
2022-08-22T21:28:50.895Z,22.27
2022-08-22T21:31:21.008Z,20.50
2022-08-22T21:33:51.997Z,21.10
2022-08-22T21:36:27.447Z,15.07
2022-08-22T21:38:56.388Z,19.20
2022-08-22T21:41:30.670Z,17.65
2022-08-22T21:44:22.157Z,20.50
2022-08-22T21:46:52.510Z,30.92
2022-08-22T21:49:24.300Z,17.63
2022-08-22T21:51:51.207Z,22.42
2022-08-22T21:54:30.089Z,26.10
2022-08-22T21:57:09.776Z,22.45
2022-08-22T21:59:52.122Z,22.65
2022-08-22T22:02:34.234Z,24.15
2022-08-22T22:05:11.523Z,22.90
2022-08-22T22:07:40.272Z,24.17
2022-08-22T22:10:08.545Z,24.45
2022-08-22T22:12:35.406Z,24.92
2022-08-22T22:15:02.661Z,20.52
2022-08-22T22:17:29.417Z,22.88
2022-08-22T22:19:56.181Z,20.42
2022-08-22T22:22:25.088Z,22.92
2022-08-22T22:24:51.851Z,24.55
2022-08-22T22:27:18.591Z,24.98
2022-08-22T22:29:45.337Z,24.95
2022-08-22T22:32:12.109Z,24.90
2022-08-22T22:34:39.234Z,21.73
2022-08-22T22:37:09.487Z,26.65
2022-08-22T22:39:36.402Z,27.00
2022-08-22T22:42:03.533Z,24.92
2022-08-22T22:44:30.463Z,22.95
2022-08-22T22:46:58.405Z,21.08
2022-08-22T22:49:25.189Z,33.75
2022-08-22T22:51:51.983Z,25.83
2022-08-22T22:54:21.159Z,34.75
2022-08-22T22:56:54.160Z,28.10
2022-08-22T22:59:24.727Z,29.00
2022-08-22T23:02:15.823Z,27.67
2022-08-22T23:04:44.202Z,25.17
2022-08-22T23:07:11.789Z,24.48
2022-08-22T23:09:44.448Z,24.88
2022-08-22T23:12:11.678Z,30.95
2022-08-22T23:14:38.423Z,27.90
2022-08-22T23:17:05.269Z,21.33
2022-08-22T23:19:32.863Z,31.83
2022-08-22T23:21:59.892Z,23.67
2022-08-22T23:24:28.266Z,32.65
2022-08-22T23:26:55.582Z,29.70
2022-08-22T23:29:22.340Z,23.42
2022-08-22T23:31:56.493Z,25.95
2022-08-22T23:34:32.812Z,31.08
2022-08-22T23:37:06.572Z,30.08
2022-08-22T23:39:33.878Z,25.23
2022-08-22T23:42:01.038Z,26.85
2022-08-22T23:44:30.377Z,26.02
2022-08-22T23:47:01.798Z,28.27
2022-08-22T23:49:31.168Z,25.98
2022-08-22T23:51:57.996Z,33.25
2022-08-22T23:54:24.830Z,27.70
2022-08-22T23:56:57.123Z,26.13
2022-08-22T23:59:36.107Z,28.33
